Time,TemperatureF,DewpointF,PressureIn,WindDirection,WindDirectionDegrees,WindSpeedMPH,WindSpeedGustMPH,Humidity,HourlyPrecipIn,Conditions,Clouds,dailyrainin,SoftwareType,DateUTC
2014-01-02 00:00:00,36.1,22.7,29.92,South,180,10.0,19.0,58,0.00,,,-99.99,WeatherLink 5.6,2014-01-02 05:00:00,
2014-01-02 00:30:00,36.0,22.2,29.91,South,180,8.0,16.0,57,0.00,,,-99.99,WeatherLink 5.6,2014-01-02 05:30:00,
2014-01-02 01:00:00,35.3,22.8,29.90,South,180,7.0,17.0,60,0.00,,,-99.99,WeatherLink 5.6,2014-01-02 06:00:00,
2014-01-02 01:30:00,35.4,23.3,29.89,South,180,4.0,14.0,61,0.00,,,-99.99,WeatherLink 5.6,2014-01-02 06:30:00,
2014-01-02 02:00:00,34.9,22.8,29.87,South,180,5.0,15.0,61,0.00,,,-99.99,WeatherLink 5.6,2014-01-02 07:00:00,
2014-01-02 02:30:00,34.4,23.1,29.87,South,180,6.0,14.0,63,0.00,,,-99.99,WeatherLink 5.6,2014-01-02 07:30:00,
2014-01-02 03:00:00,34.4,23.8,29.86,South,180,6.0,16.0,65,0.00,,,-99.99,WeatherLink 5.6,2014-01-02 08:00:00,
2014-01-02 03:30:00,34.2,24.0,29.87,South,180,2.0,13.0,66,0.00,,,-99.99,WeatherLink 5.6,2014-01-02 08:30:00,
2014-01-02 04:00:00,34.8,24.6,29.83,South,180,7.0,17.0,66,0.00,,,-99.99,WeatherLink 5.6,2014-01-02 09:00:00,
2014-01-02 04:30:00,34.1,24.6,29.83,South,180,6.0,19.0,68,0.00,,,-99.99,WeatherLink 5.6,2014-01-02 09:30:00,
2014-01-02 05:00:00,34.5,25.7,29.81,South,180,6.0,16.0,70,0.00,,,-99.99,WeatherLink 5.6,2014-01-02 10:00:00,
2014-01-02 05:30:00,38.5,32.2,29.80,SSE,157,3.0,16.0,78,0.00,,,-99.99,WeatherLink 5.6,2014-01-02 10:30:00,
2014-01-02 06:00:00,39.1,33.8,29.79,SW,225,5.0,16.0,81,0.00,,,-99.99,WeatherLink 5.6,2014-01-02 11:00:00,
2014-01-02 06:30:00,36.2,31.2,29.79,South,180,5.0,14.0,82,0.00,,,-99.99,WeatherLink 5.6,2014-01-02 11:30:00,
2014-01-02 07:00:00,34.4,29.5,29.78,South,180,6.0,14.0,82,0.00,,,-99.99,WeatherLink 5.6,2014-01-02 12:00:00,
2014-01-02 07:30:00,33.9,30.4,29.76,SSE,157,5.0,13.0,87,0.00,,,-99.99,WeatherLink 5.6,2014-01-02 12:30:00,
2014-01-02 08:00:00,32.6,29.7,29.75,South,180,8.0,17.0,89,0.00,,,-99.99,WeatherLink 5.6,2014-01-02 13:00:00,
2014-01-02 08:30:00,32.4,30.6,29.76,South,180,7.0,17.0,93,0.00,,,-99.99,WeatherLink 5.6,2014-01-02 13:30:00,
2014-01-02 09:00:00,33.4,31.9,29.73,South,180,7.0,13.0,94,0.01,,,-99.99,WeatherLink 5.6,2014-01-02 14:00:00,
2014-01-02 09:30:00,33.5,32.0,29.72,South,180,9.0,17.0,94,0.01,,,-99.99,WeatherLink 5.6,2014-01-02 14:30:00,
2014-01-02 10:00:00,33.3,31.8,29.72,South,180,7.0,16.0,94,0.01,,,-99.99,WeatherLink 5.6,2014-01-02 15:00:00,
2014-01-02 10:30:00,34.2,32.7,29.70,South,180,6.0,17.0,94,0.02,,,-99.99,WeatherLink 5.6,2014-01-02 15:30:00,
2014-01-02 11:00:00,34.2,32.9,29.67,South,180,7.0,19.0,95,0.01,,,-99.99,WeatherLink 5.6,2014-01-02 16:00:00,
2014-01-02 11:30:00,35.1,33.8,29.64,South,180,12.0,24.0,95,0.00,,,-99.99,WeatherLink 5.6,2014-01-02 16:30:00,
2014-01-02 12:00:00,35.9,34.6,29.63,South,180,5.0,19.0,95,0.01,,,-99.99,WeatherLink 5.6,2014-01-02 17:00:00,
2014-01-02 12:30:00,36.6,35.3,29.59,South,180,5.0,13.0,95,0.01,,,-99.99,WeatherLink 5.6,2014-01-02 17:30:00,
2014-01-02 13:00:00,36.4,35.1,29.56,South,180,4.0,14.0,95,0.00,,,-99.99,WeatherLink 5.6,2014-01-02 18:00:00,
2014-01-02 13:30:00,36.6,35.3,29.57,South,180,4.0,14.0,95,0.01,,,-99.99,WeatherLink 5.6,2014-01-02 18:30:00,
2014-01-02 14:00:00,36.8,35.5,29.56,WSW,247,7.0,21.0,95,0.04,,,-99.99,WeatherLink 5.6,2014-01-02 19:00:00,
2014-01-02 14:30:00,36.5,34.9,29.56,West,270,5.0,15.0,94,0.04,,,-99.99,WeatherLink 5.6,2014-01-02 19:30:00,
2014-01-02 15:00:00,36.3,34.7,29.58,WNW,292,5.0,15.0,94,0.02,,,-99.99,WeatherLink 5.6,2014-01-02 20:00:00,
2014-01-02 15:30:00,35.5,33.9,29.58,WNW,292,6.0,23.0,94,0.02,,,-99.99,WeatherLink 5.6,2014-01-02 20:30:00,
2014-01-02 16:00:00,34.4,32.9,29.60,NW,315,10.0,19.0,94,0.01,,,-99.99,WeatherLink 5.6,2014-01-02 21:00:00,
2014-01-02 16:30:00,32.1,30.6,29.63,NW,315,11.0,23.0,94,0.01,,,-99.99,WeatherLink 5.6,2014-01-02 21:30:00,
2014-01-02 17:00:00,30.9,29.4,29.63,NW,315,10.0,19.0,94,0.01,,,-99.99,WeatherLink 5.6,2014-01-02 22:00:00,
2014-01-02 17:30:00,29.8,28.3,29.63,NW,315,10.0,21.0,94,0.00,,,-99.99,WeatherLink 5.6,2014-01-02 22:30:00,
2014-01-02 18:00:00,28.0,26.5,29.65,NW,315,9.0,23.0,94,0.00,,,-99.99,WeatherLink 5.6,2014-01-02 23:00:00,
2014-01-02 18:30:00,27.4,25.9,29.68,NW,315,8.0,23.0,94,0.00,,,-99.99,WeatherLink 5.6,2014-01-02 23:30:00,
2014-01-02 19:00:00,26.0,24.5,29.69,NW,315,12.0,24.0,94,0.00,,,-99.99,WeatherLink 5.6,2014-01-03 00:00:00,
2014-01-02 19:30:00,24.1,22.6,29.73,NW,315,15.0,31.0,94,0.00,,,-99.99,WeatherLink 5.6,2014-01-03 00:30:00,
2014-01-02 20:00:00,21.6,19.9,29.75,NW,315,15.0,31.0,93,0.00,,,-99.99,WeatherLink 5.6,2014-01-03 01:00:00,
2014-01-02 20:30:00,19.2,17.3,29.79,NW,315,14.0,33.0,92,0.00,,,-99.99,WeatherLink 5.6,2014-01-03 01:30:00,
2014-01-02 21:00:00,17.0,15.1,29.82,NW,315,11.0,24.0,92,0.00,,,-99.99,WeatherLink 5.6,2014-01-03 02:00:00,
2014-01-02 21:30:00,14.8,12.6,29.83,NW,315,16.0,33.0,91,0.00,,,-99.99,WeatherLink 5.6,2014-01-03 02:30:00,
2014-01-02 22:00:00,14.3,12.2,29.86,NW,315,13.0,24.0,91,0.00,,,-99.99,WeatherLink 5.6,2014-01-03 03:00:00,
2014-01-02 22:30:00,13.3,11.2,29.88,NW,315,13.0,29.0,91,0.00,,,-99.99,WeatherLink 5.6,2014-01-03 03:30:00,
2014-01-02 23:00:00,12.0,9.6,29.90,NW,315,11.0,23.0,90,0.00,,,-99.99,WeatherLink 5.6,2014-01-03 04:00:00,
2014-01-02 23:30:00,11.0,8.6,29.91,NW,315,12.0,30.0,90,0.00,,,-99.99,WeatherLink 5.6,2014-01-03 04:30:00,